Skip to main content

NOAA/GLERL Met Station at Chicago, IL

Previous 5 days (top of hour only)
See also Previous 3 Hours (2 minute increments)
Jump down to Data
Switch to [English][Metric]
Zoom: Click and drag, Pan: shift-click and drag, Unzoom: double-click, Unzoom All




Note: Speed = mean wind during 2-minute period at top of hour,
Gust = max wind during 2-minute period at top of hour,
Peak = max wind during entire hour.
• See also 5-day windrose plot


NOAA/GLERL Met Station at Chicago, IL

Previous 5 days (top of hour only)
See also Previous 3 Hours (2 minute increments)
Jump up to Graphs
Switch to [English][Metric]
                  Wind  Wind  Wind   Air   Dew   Rel
                   Spd   Gst   Dir  Temp    Pt   Hum
YYYY-MM-DD   CDT   kts   kts   deg     F     F     %
2020-04-09 00:00 -99.0 -99.0   -99   0.0   0.0   0.0
2020-04-08 16:00   9.5  10.5    27  42.8  42.9 100.2
2020-04-08 15:00   5.6   6.4    23  43.2  43.2 100.2
2020-04-08 14:00   5.2   5.8    81  43.7  43.8 100.2
2020-04-08 13:00   5.2   5.8   115  44.4  44.5 100.2
2020-04-08 12:00  11.9  12.2   119  46.4  46.5 100.2
2020-04-08 11:00   7.0   7.4   117  48.6  48.6 100.2
2020-04-08 10:00   7.6   7.6   118  48.0  48.1 100.2
2020-04-08 09:00   7.4   8.0   174  48.0  48.1 100.2
2020-04-08 08:00   6.6   8.2   152  47.3  47.4 100.2
2020-04-08 07:00   7.6   8.0   191  46.2  46.3 100.2
2020-04-08 06:00   3.9   4.1   180  46.0  46.1 100.3
2020-04-08 05:00   1.7   2.1    27  46.2  46.3 100.3
2020-04-08 04:00   2.7   3.5   173  45.7  45.7 100.2
2020-04-08 03:00   1.9   2.3   346  45.9  45.9 100.3
2020-04-08 02:00   2.7   3.1     2  45.7  45.8 100.3
2020-04-08 01:00   5.2   5.6   328  45.5  45.6 100.3
2020-04-08 00:00  14.0  15.0   334  45.3  45.4 100.3
2020-04-07 23:00  12.1  12.8   331  47.5  47.6 100.3
2020-04-07 22:00  11.1  12.8   312  65.1  61.0  86.3
2020-04-07 21:00  18.5  20.4   340  64.8  59.9  84.1
2020-04-07 20:00  20.2  21.8   292  77.4  62.0  58.6
2020-04-07 19:00  15.2  16.3   245  78.1  61.7  56.6
2020-04-07 18:00  22.2  24.9   220  78.6  61.2  54.5
2020-04-07 17:00  16.1  19.8   222  75.9  60.3  57.8
2020-04-07 16:00  22.0  23.5   215  75.4  60.7  59.9
2020-04-07 15:00  21.6  23.3   209  73.8  61.5  65.0
2020-04-07 14:00  17.9  19.1   206  68.7  60.4  74.3
2020-04-07 13:00  12.6  14.4   179  65.1  59.7  82.4
2020-04-07 12:00   9.5  11.1   179  64.8  59.5  82.9
2020-04-07 11:00   4.1   4.5   213  64.6  59.7  84.0
2020-04-07 10:00   8.4   8.7   243  63.0  59.0  86.6
2020-04-07 09:00   7.2   8.7   249  58.5  56.6  93.3
2020-04-07 08:00  10.5  10.9   195  57.9  57.4  98.3
2020-04-07 07:00  11.1  11.5   178  55.9  56.0 100.2
2020-04-07 06:00   8.0   8.6   176  55.2  55.3 100.2
2020-04-07 05:00  10.9  11.3   167  52.2  52.2 100.2
2020-04-07 04:00   8.6   9.7   162  52.9  52.9 100.2
2020-04-07 03:00   6.6   7.4   160  56.1  56.2 100.2
2020-04-07 02:00   8.9   9.9   169  54.1  54.2 100.2
2020-04-07 01:00   9.5  11.7   164  54.1  53.4  97.2
2020-04-07 00:00   5.2   5.8   147  46.6  45.2  94.8
2020-04-06 23:00   8.9   9.5   115  44.4  42.2  91.9
2020-04-06 22:00   3.3   3.7    27  44.1  40.4  86.7
2020-04-06 21:00   4.5   5.1   151  50.2  44.1  79.3
2020-04-06 20:00   9.1   9.5   143  46.6  38.7  73.8
2020-04-06 19:00   6.4   7.0   174  46.9  38.7  72.6
2020-04-06 18:00   5.4   7.4   147  47.5  35.9  63.7
2020-04-06 17:00   5.1   7.0   109  46.6  37.6  70.5
2020-04-06 16:00   9.5  10.1    76  44.4  38.7  80.0
2020-04-06 15:00  14.6  15.4   127  52.7  31.2  43.4
2020-04-06 14:00  15.7  16.1   108  52.9  32.8  46.0
2020-04-06 13:00  12.8  13.2    91  46.0  39.7  78.4
2020-04-06 12:00  14.0  14.4   114  45.7  40.8  82.9
2020-04-06 11:00  11.9  12.2   134  46.8  43.3  87.5
2020-04-06 10:00  11.3  11.7   140  43.9  41.9  92.5
2020-04-06 09:00   6.2   6.4   174  41.4  41.4 100.0
2020-04-06 08:00   4.5   6.2   163  40.1  40.0  99.6
2020-04-06 07:00   6.2   6.8   138  39.4  38.6  97.1
2020-04-06 06:00   3.5   4.1   151  38.3  37.7  97.8
2020-04-06 05:00   1.7   1.9    95  38.3  37.6  97.4
2020-04-06 04:00   1.9   2.3    42  38.3  38.2  99.5
2020-04-06 03:00   3.1   3.3    81  38.1  37.8  98.7
2020-04-06 02:00   3.9   4.3    57  37.8  37.8 100.3
2020-04-06 01:00   4.7   5.1    38  37.8  37.8 100.3
2020-04-06 00:00   3.9   4.3    32  37.9  38.0 100.3
2020-04-05 23:00   5.6   6.2    37  37.8  37.7  99.6
2020-04-05 22:00   5.2   5.8    60  37.8  37.5  99.1
2020-04-05 21:00   3.7   4.3    24  37.8  36.9  96.5
2020-04-05 20:00   4.1   4.7    32  37.6  36.5  95.9
2020-04-05 19:00   6.4   6.8     8  37.8  36.1  93.6
2020-04-05 18:00   8.9   9.9     7  37.9  35.7  91.6
2020-04-05 17:00   9.7  11.5     5  37.6  35.3  91.3
2020-04-05 16:00  11.7  12.6    10  37.4  34.5  89.2
2020-04-05 15:00  12.6  13.8     3  37.2  33.9  87.8
2020-04-05 14:00  12.1  13.0   355  37.0  33.3  86.0
2020-04-05 13:00  11.7  12.2     8  37.2  31.3  78.8
2020-04-05 12:00  12.8  14.0    11  37.8  31.5  77.9
2020-04-05 11:00  11.3  12.4    23  38.1  31.8  77.7
2020-04-05 10:00  14.6  15.6    25  38.5  31.4  75.3
2020-04-05 09:00  12.4  13.8    18  38.7  33.7  82.2
2020-04-05 08:00  14.2  15.4    19  38.5  34.7  86.2
2020-04-05 07:00  16.1  17.5     7  38.1  38.0  99.5
2020-04-05 06:00  15.7  18.1     1  37.9  38.0 100.1
2020-04-05 05:00  13.6  14.8   359  37.4  37.5 100.3
2020-04-05 04:00  15.7  16.5   355  37.4  37.3  99.7
2020-04-05 03:00   8.9  10.3   342  37.9  36.8  95.7
2020-04-05 02:00   7.6   8.6   342  38.3  37.0  95.1
2020-04-05 01:00   5.8   6.4   343  37.9  37.0  96.3
2020-04-05 00:00   5.2   5.8   343  37.8  37.4  98.5
2020-04-04 23:00   8.6   9.1     2  37.9  38.0 100.2
2020-04-04 22:00   7.8   8.6    21  38.1  37.8  98.6
2020-04-04 21:00   4.1   4.7    51  38.3  37.7  97.8
2020-04-04 20:00   4.9   5.2    48  38.1  37.5  97.4
2020-04-04 19:00   5.2   5.6    55  38.5  37.2  95.0
2020-04-04 18:00   9.9  10.9    45  39.0  37.1  92.9
2020-04-04 17:00  13.4  15.0    31  39.2  37.5  93.7
2020-04-04 16:00  13.8  15.0    20  38.8  36.2  90.0
2020-04-04 15:00  10.3  11.5   350  38.8  36.9  92.6
2020-04-04 14:00  11.1  11.7   345  38.5  36.8  93.6
2020-04-04 13:00  12.1  12.6   342  37.9  36.3  93.9
2020-04-04 12:00  10.1  12.2   357  36.9  36.9 100.1
2020-04-04 11:00  12.2  12.8   349  37.2  37.1  99.6
2020-04-04 10:00  12.8  14.2   338  37.4  37.5 100.2
2020-04-04 09:00  12.8  14.2   328  37.8  37.8 100.2
2020-04-04 08:00  13.6  14.6   326  38.3  38.2  99.6
2020-04-04 07:00  13.2  14.8   318  40.1  40.2 100.2
2020-04-04 06:00  15.7  16.7   312  42.1  41.7  98.7
2020-04-04 05:00  13.4  14.2   303  44.4  43.5  96.6
2020-04-04 04:00  12.2  12.8   313  46.4  45.0  94.8
2020-04-04 03:00  10.9  11.5   312  49.5  48.8  97.6
2020-04-04 02:00  11.7  12.8   291  53.2  49.2  85.9
2020-04-04 01:00  15.4  15.7   286  57.0  51.2  80.7
2020-04-04 00:00  10.1  10.3   202  61.3  46.3  57.4
2020-04-03 23:00   7.4   8.4   184  49.5  42.2  75.7
2020-04-03 22:00   7.2   7.8   167  46.9  40.1  76.8
2020-04-03 21:00   8.4   9.1   181  47.5  39.4  73.3
2020-04-03 20:00   5.4   6.2   158  48.0  39.4  71.7
2020-04-03 19:00   5.4   7.0   151  47.5  39.1  72.5